sensor_id;sensor_type;location;lat;lon;timestamp;P1;durP1;ratioP1;P2;durP2;ratioP2
37881;SDS011;23724;45.572;12.064;2022-12-07T02:58:30;17.85;;;12.93;;
37881;SDS011;23724;45.572;12.064;2022-12-07T03:03:47;15.05;;;10.82;;
37881;SDS011;23724;45.572;12.064;2022-12-07T03:09:27;13.70;;;11.50;;
37881;SDS011;23724;45.572;12.064;2022-12-07T03:14:41;12.85;;;10.95;;
37881;SDS011;23724;45.572;12.064;2022-12-07T03:19:58;14.13;;;11.55;;
37881;SDS011;23724;45.572;12.064;2022-12-07T03:25:09;14.00;;;10.13;;
37881;SDS011;23724;45.572;12.064;2022-12-07T03:30:19;13.40;;;10.60;;
37881;SDS011;23724;45.572;12.064;2022-12-07T03:35:34;14.13;;;9.98;;
37881;SDS011;23724;45.572;12.064;2022-12-07T03:40:47;13.20;;;9.83;;
37881;SDS011;23724;45.572;12.064;2022-12-07T03:56:42;13.07;;;9.45;;
37881;SDS011;23724;45.572;12.064;2022-12-07T04:01:56;11.40;;;9.45;;
37881;SDS011;23724;45.572;12.064;2022-12-07T04:07:05;13.68;;;10.90;;
37881;SDS011;23724;45.572;12.064;2022-12-07T04:12:09;13.85;;;10.52;;
37881;SDS011;23724;45.572;12.064;2022-12-07T04:17:14;13.68;;;10.40;;
37881;SDS011;23724;45.572;12.064;2022-12-07T04:22:18;12.00;;;10.32;;
37881;SDS011;23724;45.572;12.064;2022-12-07T04:27:23;13.35;;;9.82;;
37881;SDS011;23724;45.572;12.064;2022-12-07T04:32:28;13.55;;;10.45;;
37881;SDS011;23724;45.572;12.064;2022-12-07T04:37:32;11.85;;;9.73;;
37881;SDS011;23724;45.572;12.064;2022-12-07T04:42:37;13.88;;;10.95;;
37881;SDS011;23724;45.572;12.064;2022-12-07T04:47:42;10.80;;;9.63;;
37881;SDS011;23724;45.572;12.064;2022-12-07T04:52:47;12.70;;;9.80;;
37881;SDS011;23724;45.572;12.064;2022-12-07T04:57:52;11.50;;;9.98;;
37881;SDS011;23724;45.572;12.064;2022-12-07T05:02:59;11.10;;;8.98;;
37881;SDS011;23724;45.572;12.064;2022-12-07T05:08:03;11.30;;;8.35;;
37881;SDS011;23724;45.572;12.064;2022-12-07T05:13:09;9.95;;;7.03;;
37881;SDS011;23724;45.572;12.064;2022-12-07T05:18:14;9.23;;;7.72;;
37881;SDS011;23724;45.572;12.064;2022-12-07T05:23:18;10.10;;;7.07;;
37881;SDS011;23724;45.572;12.064;2022-12-07T05:28:24;12.43;;;9.18;;
37881;SDS011;23724;45.572;12.064;2022-12-07T05:33:28;19.45;;;11.48;;
37881;SDS011;23724;45.572;12.064;2022-12-07T05:38:33;15.23;;;11.02;;
37881;SDS011;23724;45.572;12.064;2022-12-07T05:43:38;22.17;;;16.23;;
37881;SDS011;23724;45.572;12.064;2022-12-07T05:48:43;15.07;;;11.77;;
37881;SDS011;23724;45.572;12.064;2022-12-07T05:53:49;13.65;;;10.18;;
37881;SDS011;23724;45.572;12.064;2022-12-07T05:58:53;13.18;;;10.10;;
37881;SDS011;23724;45.572;12.064;2022-12-07T06:04:17;32.35;;;22.70;;
37881;SDS011;23724;45.572;12.064;2022-12-07T06:09:22;17.27;;;13.85;;
37881;SDS011;23724;45.572;12.064;2022-12-07T06:14:28;18.38;;;12.45;;
37881;SDS011;23724;45.572;12.064;2022-12-07T06:19:32;11.05;;;9.20;;
37881;SDS011;23724;45.572;12.064;2022-12-07T06:24:37;12.95;;;10.05;;
37881;SDS011;23724;45.572;12.064;2022-12-07T06:29:42;18.42;;;12.90;;
37881;SDS011;23724;45.572;12.064;2022-12-07T06:34:46;23.40;;;17.05;;
37881;SDS011;23724;45.572;12.064;2022-12-07T06:39:51;16.00;;;12.95;;
37881;SDS011;23724;45.572;12.064;2022-12-07T06:44:56;11.00;;;9.18;;
37881;SDS011;23724;45.572;12.064;2022-12-07T06:50:01;15.20;;;11.93;;
37881;SDS011;23724;45.572;12.064;2022-12-07T06:55:07;11.45;;;8.80;;
37881;SDS011;23724;45.572;12.064;2022-12-07T07:00:11;12.82;;;11.18;;
37881;SDS011;23724;45.572;12.064;2022-12-07T07:05:24;13.73;;;9.30;;
37881;SDS011;23724;45.572;12.064;2022-12-07T07:10:29;11.95;;;9.80;;
37881;SDS011;23724;45.572;12.064;2022-12-07T07:15:34;14.73;;;12.45;;
37881;SDS011;23724;45.572;12.064;2022-12-07T07:20:38;14.95;;;10.80;;
37881;SDS011;23724;45.572;12.064;2022-12-07T07:25:43;10.63;;;9.07;;
37881;SDS011;23724;45.572;12.064;2022-12-07T07:30:48;12.18;;;8.95;;
37881;SDS011;23724;45.572;12.064;2022-12-07T07:35:52;14.32;;;9.27;;
37881;SDS011;23724;45.572;12.064;2022-12-07T07:40:57;24.27;;;14.93;;
37881;SDS011;23724;45.572;12.064;2022-12-07T07:46:01;14.02;;;9.75;;
37881;SDS011;23724;45.572;12.064;2022-12-07T07:51:08;16.10;;;11.68;;
37881;SDS011;23724;45.572;12.064;2022-12-07T07:56:12;21.80;;;16.10;;
37881;SDS011;23724;45.572;12.064;2022-12-07T08:01:17;24.77;;;18.30;;
37881;SDS011;23724;45.572;12.064;2022-12-07T08:06:23;27.98;;;16.17;;
37881;SDS011;23724;45.572;12.064;2022-12-07T08:11:34;17.27;;;13.10;;
37881;SDS011;23724;45.572;12.064;2022-12-07T08:16:40;19.42;;;14.90;;
37881;SDS011;23724;45.572;12.064;2022-12-07T08:21:44;20.73;;;16.63;;
37881;SDS011;23724;45.572;12.064;2022-12-07T08:26:50;25.98;;;17.02;;
37881;SDS011;23724;45.572;12.064;2022-12-07T08:31:54;25.33;;;16.58;;
37881;SDS011;23724;45.572;12.064;2022-12-07T08:36:59;27.23;;;18.38;;
37881;SDS011;23724;45.572;12.064;2022-12-07T08:42:03;20.02;;;14.95;;
37881;SDS011;23724;45.572;12.064;2022-12-07T08:47:07;22.38;;;15.70;;
37881;SDS011;23724;45.572;12.064;2022-12-07T08:52:14;16.05;;;12.50;;
37881;SDS011;23724;45.572;12.064;2022-12-07T08:57:19;12.48;;;10.68;;
37881;SDS011;23724;45.572;12.064;2022-12-07T09:02:24;16.45;;;12.98;;
37881;SDS011;23724;45.572;12.064;2022-12-07T09:07:28;17.67;;;12.25;;
37881;SDS011;23724;45.572;12.064;2022-12-07T09:12:36;32.30;;;17.88;;
37881;SDS011;23724;45.572;12.064;2022-12-07T09:17:41;28.17;;;16.23;;
37881;SDS011;23724;45.572;12.064;2022-12-07T09:22:45;16.55;;;12.50;;
37881;SDS011;23724;45.572;12.064;2022-12-07T09:27:57;16.35;;;12.02;;
37881;SDS011;23724;45.572;12.064;2022-12-07T09:33:01;13.30;;;9.93;;
37881;SDS011;23724;45.572;12.064;2022-12-07T09:38:06;10.50;;;8.55;;
37881;SDS011;23724;45.572;12.064;2022-12-07T09:43:14;12.80;;;9.25;;
37881;SDS011;23724;45.572;12.064;2022-12-07T09:53:37;10.77;;;8.02;;
37881;SDS011;23724;45.572;12.064;2022-12-07T09:58:43;12.98;;;8.93;;
37881;SDS011;23724;45.572;12.064;2022-12-07T10:03:58;11.57;;;8.80;;
37881;SDS011;23724;45.572;12.064;2022-12-07T10:09:09;14.07;;;8.88;;
37881;SDS011;23724;45.572;12.064;2022-12-07T10:14:14;10.00;;;7.57;;
37881;SDS011;23724;45.572;12.064;2022-12-07T10:19:31;11.63;;;8.32;;
37881;SDS011;23724;45.572;12.064;2022-12-07T10:24:38;8.23;;;6.57;;
37881;SDS011;23724;45.572;12.064;2022-12-07T10:29:50;9.15;;;7.15;;
37881;SDS011;23724;45.572;12.064;2022-12-07T10:45:39;8.77;;;6.10;;
37881;SDS011;23724;45.572;12.064;2022-12-07T11:07:13;6.13;;;5.22;;
37881;SDS011;23724;45.572;12.064;2022-12-07T11:34:47;3.90;;;3.05;;
37881;SDS011;23724;45.572;12.064;2022-12-07T11:40:03;2.25;;;1.50;;
37881;SDS011;23724;45.572;12.064;2022-12-07T11:45:19;2.60;;;2.40;;
37881;SDS011;23724;45.572;12.064;2022-12-07T11:50:39;3.60;;;3.10;;
37881;SDS011;23724;45.572;12.064;2022-12-07T12:00:56;2.45;;;1.98;;
37881;SDS011;23724;45.572;12.064;2022-12-07T12:06:09;2.40;;;1.73;;
37881;SDS011;23724;45.572;12.064;2022-12-07T12:22:23;1.77;;;1.67;;
37881;SDS011;23724;45.572;12.064;2022-12-07T12:27:38;2.97;;;2.55;;
37881;SDS011;23724;45.572;12.064;2022-12-07T12:32:43;2.20;;;1.77;;
37881;SDS011;23724;45.572;12.064;2022-12-07T12:37:49;4.07;;;2.60;;
37881;SDS011;23724;45.572;12.064;2022-12-07T12:42:57;2.95;;;2.40;;
37881;SDS011;23724;45.572;12.064;2022-12-07T12:48:02;2.58;;;2.38;;
37881;SDS011;23724;45.572;12.064;2022-12-07T12:53:24;2.60;;;2.40;;
37881;SDS011;23724;45.572;12.064;2022-12-07T12:58:32;3.17;;;2.88;;
37881;SDS011;23724;45.572;12.064;2022-12-07T13:03:51;4.75;;;3.05;;
37881;SDS011;23724;45.572;12.064;2022-12-07T13:08:57;2.95;;;2.67;;
37881;SDS011;23724;45.572;12.064;2022-12-07T13:24:46;3.50;;;2.20;;
37881;SDS011;23724;45.572;12.064;2022-12-07T13:29:50;3.33;;;3.03;;
37881;SDS011;23724;45.572;12.064;2022-12-07T13:34:57;2.22;;;2.03;;
37881;SDS011;23724;45.572;12.064;2022-12-07T13:40:18;3.00;;;2.47;;
37881;SDS011;23724;45.572;12.064;2022-12-07T13:45:26;2.22;;;2.00;;
37881;SDS011;23724;45.572;12.064;2022-12-07T13:50:55;2.55;;;2.05;;
37881;SDS011;23724;45.572;12.064;2022-12-07T13:56:01;2.90;;;2.40;;
37881;SDS011;23724;45.572;12.064;2022-12-07T14:01:05;3.30;;;2.95;;
37881;SDS011;23724;45.572;12.064;2022-12-07T14:06:14;2.30;;;2.10;;
37881;SDS011;23724;45.572;12.064;2022-12-07T14:11:39;2.65;;;2.17;;
37881;SDS011;23724;45.572;12.064;2022-12-07T14:16:54;3.30;;;2.67;;
37881;SDS011;23724;45.572;12.064;2022-12-07T14:22:08;4.10;;;3.60;;
37881;SDS011;23724;45.572;12.064;2022-12-07T14:27:23;3.45;;;3.08;;
37881;SDS011;23724;45.572;12.064;2022-12-07T14:32:34;4.38;;;3.35;;
37881;SDS011;23724;45.572;12.064;2022-12-07T14:37:41;3.78;;;3.20;;
37881;SDS011;23724;45.572;12.064;2022-12-07T14:42:50;3.50;;;2.50;;
37881;SDS011;23724;45.572;12.064;2022-12-07T14:47:57;3.75;;;2.60;;
37881;SDS011;23724;45.572;12.064;2022-12-07T14:53:23;2.70;;;2.00;;
37881;SDS011;23724;45.572;12.064;2022-12-07T14:58:34;3.15;;;2.15;;
37881;SDS011;23724;45.572;12.064;2022-12-07T15:03:39;8.73;;;4.38;;
37881;SDS011;23724;45.572;12.064;2022-12-07T15:08:45;10.80;;;5.65;;
37881;SDS011;23724;45.572;12.064;2022-12-07T15:13:50;12.63;;;7.60;;
37881;SDS011;23724;45.572;12.064;2022-12-07T15:19:16;13.57;;;6.65;;
37881;SDS011;23724;45.572;12.064;2022-12-07T15:24:32;9.38;;;5.05;;
37881;SDS011;23724;45.572;12.064;2022-12-07T15:29:37;10.57;;;5.50;;
37881;SDS011;23724;45.572;12.064;2022-12-07T15:34:42;8.25;;;5.25;;
37881;SDS011;23724;45.572;12.064;2022-12-07T15:39:47;6.05;;;3.20;;
37881;SDS011;23724;45.572;12.064;2022-12-07T15:44:52;2.78;;;2.47;;
37881;SDS011;23724;45.572;12.064;2022-12-07T15:50:11;9.27;;;5.63;;
37881;SDS011;23724;45.572;12.064;2022-12-07T15:55:17;5.40;;;4.40;;
37881;SDS011;23724;45.572;12.064;2022-12-07T16:00:22;3.80;;;3.25;;
